Time;durP1;ratioP1;P1;durP2;ratioP2;P2;SDS_P1;SDS_P2;PMS_P1;PMS_P2;Temp;Humidity;BMP_temperature;BMP_pressure;BME280_temperature;BME280_humidity;BME280_pressure;Samples;Min_cycle;Max_cycle;Signal;HPM_P1;HPM_P2
2022/11/17 06:00:29;;;;;;;3.00;2.70;;;11.30;97.20;;;;;;1751206;28;20182;-67
2022/11/17 06:01:21;;;;;;;3.33;2.92;;;11.30;97.20;;;;;;1754355;28;20198;-67
2022/11/17 06:02:18;;;;;;;2.45;2.25;;;11.30;97.20;;;;;;1754508;28;20208;-66
2022/11/17 06:03:15;;;;;;;3.30;2.85;;;11.30;97.20;;;;;;1754503;28;20227;-67
2022/11/17 06:04:08;;;;;;;3.30;3.00;;;11.30;97.20;;;;;;1754485;28;20194;-67
2022/11/17 06:05:00;;;;;;;2.45;2.25;;;11.30;97.20;;;;;;1754485;28;20202;-67
2022/11/17 06:05:51;;;;;;;2.85;2.45;;;11.30;97.20;;;;;;1754065;28;20565;-67
2022/11/17 06:06:44;;;;;;;2.75;2.47;;;11.20;97.20;;;;;;1754507;28;20201;-67
2022/11/17 06:07:35;;;;;;;4.03;2.90;;;11.20;97.20;;;;;;1754432;28;20198;-67
2022/11/17 06:08:28;;;;;;;3.10;2.75;;;11.20;97.20;;;;;;1752535;28;20238;-67
2022/11/17 06:09:19;;;;;;;3.58;2.60;;;11.20;97.20;;;;;;1752630;28;20238;-67
2022/11/17 06:10:10;;;;;;;2.80;2.20;;;11.20;97.20;;;;;;1750046;28;20190;-67
2022/11/17 06:11:01;;;;;;;2.75;2.50;;;11.20;97.20;;;;;;1754436;28;20371;-67
2022/11/17 06:11:53;;;;;;;3.07;2.73;;;11.20;97.20;;;;;;1754971;28;20259;-67
2022/11/17 06:12:44;;;;;;;3.55;2.50;;;11.20;97.20;;;;;;1755860;28;20201;-67
2022/11/17 06:13:36;;;;;;;2.57;2.37;;;11.20;97.20;;;;;;1755911;28;20201;-67
2022/11/17 06:14:26;;;;;;;3.90;2.80;;;11.30;97.20;;;;;;1748497;28;20203;-66
2022/11/17 06:15:18;;;;;;;2.47;2.27;;;11.30;97.20;;;;;;1747193;28;20281;-67
2022/11/17 06:16:14;;;;;;;2.67;2.47;;;11.30;97.20;;;;;;1744656;28;20648;-67
2022/11/17 06:17:10;;;;;;;4.00;2.80;;;11.30;97.20;;;;;;1749044;28;20206;-67
2022/11/17 06:18:03;;;;;;;3.10;2.78;;;11.30;97.20;;;;;;1749048;28;20233;-67
2022/11/17 06:19:02;;;;;;;3.15;2.50;;;11.30;97.20;;;;;;1750184;28;20690;-67
2022/11/17 06:19:56;;;;;;;2.70;2.50;;;11.30;97.20;;;;;;1752760;28;20210;-67
2022/11/17 06:20:52;;;;;;;2.55;2.05;;;11.30;97.20;;;;;;1754896;28;20691;-67
2022/11/17 06:21:43;;;;;;;3.72;2.72;;;11.40;97.20;;;;;;1755703;28;20209;-67
2022/11/17 06:22:35;;;;;;;3.60;2.60;;;11.40;97.20;;;;;;1755845;28;20202;-67
2022/11/17 06:23:30;;;;;;;7.00;2.30;;;11.40;97.20;;;;;;1755824;28;20447;-67
2022/11/17 06:24:22;;;;;;;2.58;2.17;;;11.40;97.20;;;;;;1752309;28;20546;-67
2022/11/17 06:25:13;;;;;;;2.35;2.20;;;11.40;97.20;;;;;;1749295;28;20202;-66
2022/11/17 06:26:09;;;;;;;2.20;2.00;;;11.40;97.20;;;;;;1755817;28;20204;-67
2022/11/17 06:27:00;;;;;;;1.83;1.63;;;11.40;97.20;;;;;;1755838;28;20447;-67
2022/11/17 06:27:52;;;;;;;2.05;1.70;;;11.40;97.20;;;;;;1755822;28;20225;-67
2022/11/17 06:28:45;;;;;;;2.10;1.77;;;11.40;97.20;;;;;;1752062;28;20207;-67
2022/11/17 06:29:37;;;;;;;2.58;1.83;;;11.40;97.20;;;;;;1742575;28;20278;-67
2022/11/17 06:30:28;;;;;;;2.30;1.95;;;11.40;97.20;;;;;;1752646;28;20209;-67
2022/11/17 06:31:21;;;;;;;2.30;2.10;;;11.40;97.20;;;;;;1755569;28;20228;-67
2022/11/17 06:32:13;;;;;;;2.58;1.95;;;11.40;97.20;;;;;;1755763;28;20206;-67
2022/11/17 06:33:07;;;;;;;2.00;1.80;;;11.40;97.20;;;;;;1755816;28;20208;-67
2022/11/17 06:34:00;;;;;;;2.22;2.03;;;11.40;97.20;;;;;;1755747;28;20214;-67
2022/11/17 06:34:51;;;;;;;3.42;2.15;;;11.40;97.20;;;;;;1755909;28;20255;-67
2022/11/17 06:35:44;;;;;;;2.15;1.95;;;11.40;97.20;;;;;;1755498;28;20202;-68
2022/11/17 06:36:36;;;;;;;3.08;1.75;;;11.50;97.20;;;;;;1748049;28;20278;-67
2022/11/17 06:37:26;;;;;;;2.20;1.80;;;11.50;97.20;;;;;;1748670;28;20668;-67
2022/11/17 06:38:18;;;;;;;2.03;1.83;;;11.50;97.20;;;;;;1742567;28;20649;-67
2022/11/17 06:39:09;;;;;;;2.00;1.90;;;11.50;97.20;;;;;;1741487;28;20214;-66
2022/11/17 06:40:01;;;;;;;2.20;2.00;;;11.50;97.20;;;;;;1741993;28;20205;-67
2022/11/17 06:40:51;;;;;;;2.63;2.13;;;11.50;97.20;;;;;;1741874;28;20718;-69
2022/11/17 06:41:43;;;;;;;4.70;2.23;;;11.50;97.20;;;;;;1742081;28;20571;-67
2022/11/17 06:43:44;;;;;;;2.05;1.90;;;11.50;97.20;;;;;;1741644;28;20198;-67
2022/11/17 06:44:35;;;;;;;2.42;2.20;;;11.40;97.20;;;;;;1741872;28;20222;-67
2022/11/17 06:45:26;;;;;;;2.50;2.30;;;11.40;97.20;;;;;;1742187;28;20213;-67
2022/11/17 06:46:18;;;;;;;3.00;2.53;;;11.40;97.20;;;;;;1742121;28;20217;-68
2022/11/17 06:47:10;;;;;;;2.90;2.50;;;11.40;97.20;;;;;;1742138;28;20218;-67
2022/11/17 06:48:01;;;;;;;3.88;3.47;;;11.40;97.20;;;;;;1742121;28;20206;-67
2022/11/17 06:48:54;;;;;;;3.53;3.22;;;11.40;97.20;;;;;;1742090;28;20199;-68
2022/11/17 06:49:45;;;;;;;2.47;2.20;;;11.40;97.20;;;;;;1742110;28;20195;-67
2022/11/17 06:50:37;;;;;;;4.57;2.80;;;11.40;97.20;;;;;;1748510;28;20218;-67
2022/11/17 06:51:28;;;;;;;2.38;1.90;;;11.40;97.20;;;;;;1749021;28;20227;-67
2022/11/17 06:52:19;;;;;;;2.77;2.37;;;11.40;97.20;;;;;;1749019;28;20198;-66
2022/11/17 06:53:11;;;;;;;2.63;2.33;;;11.40;97.20;;;;;;1749025;28;20217;-67
2022/11/17 06:54:06;;;;;;;1.80;1.70;;;11.40;97.20;;;;;;1749045;28;20202;-67
2022/11/17 06:54:56;;;;;;;2.20;1.60;;;11.30;97.20;;;;;;1749019;28;20209;-67
2022/11/17 06:55:50;;;;;;;2.07;1.80;;;11.40;97.20;;;;;;1749077;28;20198;-67
2022/11/17 06:56:41;;;;;;;4.78;2.20;;;11.30;97.20;;;;;;1748935;28;20547;-67
2022/11/17 06:57:32;;;;;;;4.70;2.50;;;11.30;97.20;;;;;;1749001;28;20195;-67
2022/11/17 06:58:23;;;;;;;2.77;2.30;;;11.30;97.20;;;;;;1749053;28;20200;-66
2022/11/17 06:59:14;;;;;;;3.58;2.17;;;11.30;97.20;;;;;;1747257;28;20195;-68
2022/11/17 07:00:07;;;;;;;3.58;2.25;;;11.30;97.20;;;;;;1743385;28;20555;-68
2022/11/17 07:01:03;;;;;;;2.60;2.40;;;11.30;97.20;;;;;;1743170;28;20724;-68
2022/11/17 07:01:55;;;;;;;2.00;1.83;;;11.30;97.20;;;;;;1748853;28;20198;-68
2022/11/17 07:02:47;;;;;;;1.90;1.60;;;11.30;97.20;;;;;;1748935;28;20206;-67
2022/11/17 07:03:41;;;;;;;1.80;1.70;;;11.30;97.20;;;;;;1749005;28;20251;-68
2022/11/17 07:04:32;;;;;;;2.17;1.83;;;11.30;97.20;;;;;;1748937;28;20198;-67
2022/11/17 07:05:24;;;;;;;3.70;1.80;;;11.30;97.20;;;;;;1744669;28;20218;-68
2022/11/17 07:06:15;;;;;;;2.03;1.55;;;11.30;97.20;;;;;;1747553;28;20190;-68
2022/11/17 07:07:06;;;;;;;5.10;1.97;;;11.30;97.20;;;;;;1748971;28;20199;-68
2022/11/17 07:07:57;;;;;;;2.20;1.83;;;11.30;97.20;;;;;;1748933;28;20440;-67
2022/11/17 07:08:49;;;;;;;2.85;2.25;;;11.30;97.20;;;;;;1748983;28;20195;-68
2022/11/17 07:09:40;;;;;;;2.28;2.08;;;11.30;97.20;;;;;;1748868;28;20202;-67
2022/11/17 07:10:33;;;;;;;2.33;1.80;;;11.30;97.20;;;;;;1748613;28;20214;-67
2022/11/17 07:11:24;;;;;;;1.88;1.65;;;11.30;97.20;;;;;;1748720;28;20491;-67
2022/11/17 07:12:15;;;;;;;3.07;1.87;;;11.30;97.20;;;;;;1748930;28;20208;-67
2022/11/17 07:13:07;;;;;;;2.15;1.70;;;11.30;97.20;;;;;;1748939;28;20236;-67
2022/11/17 07:13:59;;;;;;;3.28;2.42;;;11.20;97.20;;;;;;1748896;28;20198;-68
2022/11/17 07:14:49;;;;;;;3.35;2.45;;;11.20;97.20;;;;;;1748803;28;20585;-67
2022/11/17 07:15:41;;;;;;;2.80;2.60;;;11.20;97.20;;;;;;1748781;28;20562;-67
2022/11/17 07:16:32;;;;;;;2.70;2.30;;;11.20;97.20;;;;;;1748928;28;20195;-68
2022/11/17 07:17:24;;;;;;;2.40;1.93;;;11.20;97.20;;;;;;1748808;28;20199;-67
2022/11/17 07:18:17;;;;;;;3.20;1.60;;;11.20;97.20;;;;;;1748832;28;20225;-67
2022/11/17 07:19:09;;;;;;;2.00;1.90;;;11.20;97.20;;;;;;1748928;28;20206;-66
2022/11/17 07:19:59;;;;;;;2.33;2.13;;;11.20;97.20;;;;;;1748783;28;20209;-67
2022/11/17 07:20:51;;;;;;;1.97;1.77;;;11.20;97.20;;;;;;1748465;28;20223;-67
2022/11/17 07:21:42;;;;;;;2.30;1.92;;;11.20;97.20;;;;;;1748750;28;20194;-67
2022/11/17 07:22:33;;;;;;;1.73;1.60;;;11.20;97.20;;;;;;1744232;28;20198;-67
2022/11/17 07:23:24;;;;;;;2.92;1.80;;;11.20;97.20;;;;;;1740829;28;20206;-66
2022/11/17 07:24:16;;;;;;;3.73;1.50;;;11.20;97.20;;;;;;1741338;28;20206;-66
2022/11/17 07:25:08;;;;;;;1.85;1.30;;;11.20;97.20;;;;;;1741275;28;20863;-67
2022/11/17 07:26:00;;;;;;;1.80;1.70;;;11.20;97.20;;;;;;1740517;28;20755;-66
2022/11/17 07:26:51;;;;;;;2.58;1.30;;;11.20;97.20;;;;;;1741122;28;20207;-67
2022/11/17 07:27:42;;;;;;;2.13;1.67;;;11.20;97.20;;;;;;1741251;28;20187;-66
2022/11/17 07:28:34;;;;;;;2.05;1.75;;;11.20;97.20;;;;;;1741147;28;20207;-66
2022/11/17 07:29:27;;;;;;;1.48;1.20;;;11.20;97.20;;;;;;1741186;28;20227;-66
2022/11/17 07:30:18;;;;;;;1.20;1.10;;;11.20;97.20;;;;;;1740765;28;20771;-67
2022/11/17 07:31:10;;;;;;;1.98;1.45;;;11.20;97.20;;;;;;1741194;28;20717;-67
2022/11/17 07:32:01;;;;;;;2.38;1.30;;;11.20;97.20;;;;;;1741258;28;20207;-67
2022/11/17 07:32:52;;;;;;;1.37;1.20;;;11.20;97.20;;;;;;1741185;28;20195;-67
2022/11/17 07:33:44;;;;;;;2.22;1.13;;;11.30;97.20;;;;;;1741235;28;20210;-66
2022/11/17 07:34:36;;;;;;;3.33;1.52;;;11.30;97.20;;;;;;1741110;28;20227;-67
2022/11/17 07:35:27;;;;;;;2.40;1.40;;;11.30;97.20;;;;;;1741173;28;20206;-66
2022/11/17 07:36:19;;;;;;;1.90;1.25;;;11.30;97.20;;;;;;1741046;28;20199;-67
2022/11/17 07:37:10;;;;;;;2.47;1.75;;;11.30;97.20;;;;;;1741089;28;20203;-67
2022/11/17 07:38:01;;;;;;;3.23;1.60;;;11.30;97.20;;;;;;1741824;28;20195;-67
2022/11/17 07:38:52;;;;;;;2.70;1.40;;;11.30;97.20;;;;;;1745541;28;20202;-67
2022/11/17 07:39:44;;;;;;;4.10;1.57;;;11.30;97.20;;;;;;1741902;28;20199;-66
2022/11/17 07:40:35;;;;;;;1.38;1.27;;;11.40;97.20;;;;;;1741435;28;20227;-68
2022/11/17 07:41:26;;;;;;;4.37;1.50;;;11.40;97.20;;;;;;1741722;28;20207;-67
2022/11/17 07:42:17;;;;;;;2.25;1.35;;;11.40;97.20;;;;;;1741778;28;20218;-66
2022/11/17 07:43:09;;;;;;;3.03;1.70;;;11.40;97.20;;;;;;1741878;28;20202;-67
2022/11/17 07:43:59;;;;;;;1.90;1.33;;;11.40;97.20;;;;;;1741787;28;20592;-66
2022/11/17 07:44:51;;;;;;;1.40;1.10;;;11.40;97.20;;;;;;1741823;28;20203;-66
2022/11/17 07:45:42;;;;;;;1.45;1.00;;;11.40;97.20;;;;;;1741875;28;20214;-67
2022/11/17 07:46:33;;;;;;;1.50;1.20;;;11.40;97.20;;;;;;1741859;28;20203;-67
2022/11/17 07:47:24;;;;;;;3.10;1.50;;;11.40;97.20;;;;;;1741775;28;20195;-67
2022/11/17 07:48:16;;;;;;;2.30;1.40;;;11.40;97.20;;;;;;1741773;28;20199;-67
2022/11/17 07:49:08;;;;;;;2.60;1.15;;;11.40;97.20;;;;;;1741705;28;20214;-67
2022/11/17 07:49:59;;;;;;;3.58;1.20;;;11.40;97.20;;;;;;1741740;28;20203;-67
2022/11/17 07:50:50;;;;;;;3.08;1.40;;;11.40;97.20;;;;;;1741314;28;20227;-67
2022/11/17 07:51:42;;;;;;;1.73;1.33;;;11.50;97.20;;;;;;1741695;28;20226;-67
2022/11/17 07:52:33;;;;;;;2.58;1.42;;;11.50;97.20;;;;;;1741267;28;20511;-67
2022/11/17 07:53:24;;;;;;;2.50;1.17;;;11.50;97.20;;;;;;1741770;28;20203;-66
2022/11/17 07:54:15;;;;;;;4.03;1.20;;;11.50;97.20;;;;;;1741713;28;20203;-66
2022/11/17 07:55:08;;;;;;;1.87;1.20;;;11.50;97.20;;;;;;1747058;28;20205;-67
2022/11/17 07:56:02;;;;;;;1.70;1.10;;;11.50;97.20;;;;;;1748626;28;20206;-67
2022/11/17 07:56:54;;;;;;;2.88;1.70;;;11.50;97.20;;;;;;1748534;28;20195;-66
2022/11/17 07:57:45;;;;;;;2.70;0.90;;;11.60;97.20;;;;;;1748677;28;20571;-67
2022/11/17 07:58:36;;;;;;;2.27;1.10;;;11.60;97.20;;;;;;1748648;28;20569;-67
2022/11/17 07:59:27;;;;;;;2.08;1.15;;;11.60;97.20;;;;;;1748508;28;20444;-67
2022/11/17 08:00:19;;;;;;;1.60;0.90;;;11.60;97.20;;;;;;1748206;28;20205;-67
2022/11/17 08:01:13;;;;;;;2.70;1.20;;;11.60;97.20;;;;;;1748526;28;20207;-67
2022/11/17 08:02:05;;;;;;;1.10;0.80;;;11.60;97.20;;;;;;1748548;28;20695;-66
2022/11/17 08:02:59;;;;;;;1.38;1.00;;;11.60;97.20;;;;;;1748590;28;20660;-67
2022/11/17 08:03:51;;;;;;;2.03;1.10;;;11.60;97.20;;;;;;1748517;28;20210;-66
2022/11/17 08:04:43;;;;;;;2.05;1.20;;;11.60;97.20;;;;;;1748541;28;20209;-67
2022/11/17 08:05:36;;;;;;;1.65;1.25;;;11.70;97.20;;;;;;1748570;28;20584;-67
2022/11/17 08:06:27;;;;;;;2.45;0.85;;;11.70;97.20;;;;;;1748604;28;20203;-66
2022/11/17 08:07:19;;;;;;;3.10;1.10;;;11.70;97.20;;;;;;1748550;28;20199;-67
2022/11/17 08:08:11;;;;;;;5.15;1.05;;;11.70;97.20;;;;;;1748615;28;20277;-67
2022/11/17 08:09:05;;;;;;;3.53;1.00;;;11.70;97.20;;;;;;1748500;28;20664;-67
2022/11/17 08:09:55;;;;;;;3.33;1.20;;;11.70;97.20;;;;;;1748521;28;20628;-67
2022/11/17 08:10:47;;;;;;;2.73;0.90;;;11.70;97.20;;;;;;1746533;28;20638;-66
2022/11/17 08:11:38;;;;;;;3.35;1.10;;;11.70;97.20;;;;;;1741471;28;20247;-66
2022/11/17 08:12:29;;;;;;;1.83;0.90;;;11.70;97.20;;;;;;1741580;28;20202;-67
2022/11/17 08:13:21;;;;;;;1.83;0.85;;;11.70;97.20;;;;;;1741685;28;20203;-66
2022/11/17 08:14:12;;;;;;;2.00;1.00;;;11.70;97.20;;;;;;1741615;28;20195;-67
2022/11/17 08:15:04;;;;;;;2.25;1.00;;;11.70;97.20;;;;;;1741564;28;20210;-67
2022/11/17 08:15:56;;;;;;;3.42;1.00;;;11.70;97.20;;;;;;1741134;28;20187;-67
2022/11/17 08:16:47;;;;;;;4.05;1.13;;;11.70;97.20;;;;;;1741527;28;20203;-66
2022/11/17 08:17:38;;;;;;;3.23;0.90;;;11.80;97.20;;;;;;1741589;28;20195;-67
2022/11/17 08:18:29;;;;;;;3.05;1.30;;;11.80;97.20;;;;;;1741590;28;20199;-66
2022/11/17 08:19:21;;;;;;;4.10;1.40;;;11.80;97.20;;;;;;1741593;28;20261;-67
2022/11/17 08:20:13;;;;;;;7.35;3.70;;;11.80;97.20;;;;;;1741198;28;20203;-67
2022/11/17 08:21:07;;;;;;;9.20;4.75;;;11.80;97.20;;;;;;1741595;28;20286;-67
2022/11/17 08:21:58;;;;;;;6.38;3.00;;;11.90;97.20;;;;;;1741443;28;20199;-67
2022/11/17 08:22:51;;;;;;;5.27;1.90;;;11.90;97.20;;;;;;1741600;28;20213;-66
2022/11/17 08:23:41;;;;;;;1.98;1.30;;;11.90;97.20;;;;;;1741552;28;20199;-67
2022/11/17 08:24:33;;;;;;;2.13;1.40;;;11.90;97.20;;;;;;1741535;28;20206;-67
2022/11/17 08:25:26;;;;;;;3.22;1.17;;;11.90;97.20;;;;;;1741539;28;20207;-67
2022/11/17 08:26:18;;;;;;;1.80;0.90;;;12.00;97.20;;;;;;1741427;28;20203;-66
2022/11/17 08:27:09;;;;;;;4.43;1.30;;;12.00;97.20;;;;;;1741428;28;20692;-67
2022/11/17 08:28:00;;;;;;;2.83;1.23;;;12.00;97.20;;;;;;1741330;28;20206;-67
2022/11/17 08:28:51;;;;;;;2.38;1.00;;;12.00;97.20;;;;;;1741415;28;20207;-66
2022/11/17 08:29:43;;;;;;;2.60;1.00;;;12.00;97.20;;;;;;1741174;28;20199;-67
2022/11/17 08:30:34;;;;;;;1.88;1.05;;;12.00;97.20;;;;;;1741008;28;20634;-67
2022/11/17 08:31:26;;;;;;;3.80;1.50;;;12.10;97.20;;;;;;1741320;28;20206;-67
2022/11/17 08:32:18;;;;;;;2.78;1.13;;;12.10;97.20;;;;;;1741414;28;20204;-67
2022/11/17 08:33:09;;;;;;;4.05;1.10;;;12.10;97.20;;;;;;1741519;28;20703;-67
2022/11/17 08:34:00;;;;;;;2.20;1.00;;;12.10;97.20;;;;;;1741099;28;20794;-67
2022/11/17 08:34:51;;;;;;;3.20;1.48;;;12.10;97.20;;;;;;1740922;28;20947;-67
2022/11/17 08:35:44;;;;;;;2.23;1.17;;;12.10;97.20;;;;;;1741506;28;20657;-67
2022/11/17 08:36:35;;;;;;;1.70;1.02;;;12.10;97.20;;;;;;1741435;28;20195;-66
2022/11/17 08:37:26;;;;;;;1.60;0.90;;;12.10;97.20;;;;;;1741465;28;20195;-67
2022/11/17 08:38:17;;;;;;;1.95;0.90;;;12.10;97.20;;;;;;1741369;28;20207;-67
2022/11/17 08:39:09;;;;;;;1.50;0.80;;;12.10;97.20;;;;;;1741504;28;20210;-67
2022/11/17 08:39:59;;;;;;;2.60;0.70;;;12.10;97.20;;;;;;1741327;28;20210;-67
2022/11/17 08:40:51;;;;;;;1.97;0.80;;;12.10;97.20;;;;;;1741081;28;20226;-67
2022/11/17 08:41:42;;;;;;;1.70;0.70;;;12.10;97.20;;;;;;1741360;28;20195;-67
2022/11/17 08:42:33;;;;;;;3.87;1.30;;;12.10;97.20;;;;;;1741294;28;20298;-67
2022/11/17 08:43:24;;;;;;;2.75;0.95;;;12.10;97.20;;;;;;1741557;28;20253;-67
2022/11/17 08:44:16;;;;;;;4.73;0.80;;;12.10;97.20;;;;;;1741402;28;20256;-67
2022/11/17 08:45:07;;;;;;;1.10;0.60;;;12.20;97.20;;;;;;1741462;28;20456;-67
2022/11/17 08:46:01;;;;;;;2.25;0.80;;;12.20;97.20;;;;;;1741026;28;20703;-67
2022/11/17 08:46:51;;;;;;;1.58;0.63;;;12.20;97.20;;;;;;1741373;28;20592;-67
2022/11/17 08:47:43;;;;;;;1.87;0.73;;;12.20;97.20;;;;;;1741442;28;20593;-66
2022/11/17 08:48:34;;;;;;;1.73;0.70;;;12.20;97.20;;;;;;1741311;28;20600;-66
2022/11/17 08:49:25;;;;;;;4.20;0.70;;;12.20;97.20;;;;;;1741430;28;20217;-67
2022/11/17 08:50:19;;;;;;;1.40;0.60;;;12.20;97.20;;;;;;1741044;28;20217;-67
2022/11/17 08:51:12;;;;;;;1.75;0.80;;;12.20;97.20;;;;;;1741382;28;20286;-67
2022/11/17 08:52:04;;;;;;;1.58;0.60;;;12.20;97.20;;;;;;1741239;28;20230;-67
2022/11/17 08:52:55;;;;;;;1.05;0.75;;;12.30;97.20;;;;;;1741387;28;20472;-67
2022/11/17 08:53:47;;;;;;;2.60;0.60;;;12.30;97.20;;;;;;1741377;28;20199;-67
2022/11/17 08:54:37;;;;;;;1.33;0.65;;;12.30;97.20;;;;;;1741379;28;20214;-65
2022/11/17 08:55:29;;;;;;;1.50;0.90;;;12.30;97.20;;;;;;1741401;28;20277;-65
2022/11/17 08:56:20;;;;;;;1.05;0.60;;;12.30;97.20;;;;;;1741335;28;20202;-66
2022/11/17 08:57:12;;;;;;;1.57;0.60;;;12.30;97.20;;;;;;1741342;28;20203;-66
2022/11/17 08:58:02;;;;;;;1.17;0.50;;;12.30;97.20;;;;;;1741363;28;20453;-66
2022/11/17 08:58:54;;;;;;;1.20;0.60;;;12.30;97.20;;;;;;1741320;28;20191;-66
2022/11/17 08:59:45;;;;;;;2.55;0.70;;;12.30;97.20;;;;;;1741315;28;20203;-66
2022/11/17 09:00:37;;;;;;;2.87;0.60;;;12.30;97.20;;;;;;1740922;28;20223;-65
2022/11/17 09:01:27;;;;;;;1.75;0.70;;;12.30;97.20;;;;;;1741194;28;20199;-66
2022/11/17 09:02:19;;;;;;;2.10;0.80;;;12.30;97.20;;;;;;1741153;28;20198;-66
2022/11/17 09:03:10;;;;;;;1.45;0.68;;;12.30;97.20;;;;;;1741196;28;20207;-66
2022/11/17 09:04:02;;;;;;;1.73;0.60;;;12.40;97.20;;;;;;1741269;28;20253;-66
2022/11/17 09:04:53;;;;;;;1.40;0.75;;;12.40;97.20;;;;;;1741335;28;20207;-65
2022/11/17 09:05:47;;;;;;;1.57;0.60;;;12.40;97.20;;;;;;1741340;28;20202;-66
2022/11/17 09:06:39;;;;;;;2.40;0.63;;;12.40;97.20;;;;;;1741253;28;20472;-66
2022/11/17 09:07:32;;;;;;;0.70;0.60;;;12.40;97.20;;;;;;1741309;28;20199;-68
2022/11/17 09:08:23;;;;;;;1.48;0.60;;;12.40;97.20;;;;;;1741251;28;20199;-66
2022/11/17 09:09:15;;;;;;;1.03;0.60;;;12.40;97.20;;;;;;1741302;28;20249;-65
2022/11/17 09:10:09;;;;;;;1.90;0.80;;;12.50;97.20;;;;;;1741039;28;20203;-66
2022/11/17 09:11:05;;;;;;;2.17;0.60;;;12.50;97.20;;;;;;1741159;28;20225;-66
2022/11/17 09:11:55;;;;;;;1.00;0.60;;;12.50;97.20;;;;;;1741341;28;20231;-65
2022/11/17 09:12:47;;;;;;;2.07;0.70;;;12.50;97.20;;;;;;1741308;28;20199;-66
2022/11/17 09:13:39;;;;;;;2.10;0.70;;;12.50;97.20;;;;;;1741195;28;20199;-65
2022/11/17 09:14:30;;;;;;;1.85;0.60;;;12.50;97.20;;;;;;1741279;28;20629;-66
2022/11/17 09:15:21;;;;;;;1.42;0.70;;;12.50;97.20;;;;;;1741266;28;20203;-65
2022/11/17 09:16:14;;;;;;;1.33;0.70;;;12.50;97.20;;;;;;1741248;28;20203;-66
2022/11/17 09:17:06;;;;;;;1.60;0.63;;;12.60;97.20;;;;;;1741156;28;20445;-66
2022/11/17 09:17:57;;;;;;;1.30;0.70;;;12.60;97.20;;;;;;1740843;28;20192;-66
2022/11/17 09:18:48;;;;;;;1.60;0.80;;;12.60;97.20;;;;;;1741324;28;20207;-66
2022/11/17 09:19:39;;;;;;;1.38;0.73;;;12.60;97.20;;;;;;1740977;28;20202;-66
2022/11/17 09:20:31;;;;;;;1.37;0.57;;;12.60;97.20;;;;;;1741038;28;20198;-65
2022/11/17 09:21:22;;;;;;;1.38;0.60;;;12.60;97.20;;;;;;1741175;28;20199;-66
2022/11/17 09:22:15;;;;;;;1.73;0.70;;;12.60;97.20;;;;;;1741160;28;20195;-65
2022/11/17 09:23:06;;;;;;;2.97;1.30;;;12.60;97.20;;;;;;1741241;28;20943;-66
2022/11/17 09:23:57;;;;;;;3.07;0.90;;;12.60;97.20;;;;;;1741170;28;20664;-66
2022/11/17 09:24:48;;;;;;;3.67;1.20;;;12.60;97.20;;;;;;1741255;28;20826;-65
2022/11/17 09:25:40;;;;;;;2.20;0.80;;;12.60;97.20;;;;;;1741099;28;20195;-65
2022/11/17 09:26:31;;;;;;;1.52;0.70;;;12.60;97.20;;;;;;1741277;28;20249;-65
2022/11/17 09:27:22;;;;;;;1.83;0.60;;;12.60;97.20;;;;;;1741073;28;20195;-65
2022/11/17 09:28:13;;;;;;;2.28;0.63;;;12.70;97.20;;;;;;1741141;28;20812;-65
2022/11/17 09:29:05;;;;;;;2.10;0.60;;;12.70;97.20;;;;;;1741352;28;20290;-66
2022/11/17 09:29:56;;;;;;;0.90;0.52;;;12.70;97.20;;;;;;1741106;28;20203;-65
2022/11/17 09:30:47;;;;;;;1.70;0.63;;;12.70;97.20;;;;;;1740765;28;20231;-65
2022/11/17 09:31:38;;;;;;;1.85;0.70;;;12.70;97.20;;;;;;1741033;28;20202;-65
2022/11/17 09:32:30;;;;;;;2.30;0.70;;;12.80;97.20;;;;;;1741049;28;20223;-65
2022/11/17 09:33:20;;;;;;;1.98;0.52;;;12.80;97.20;;;;;;1741132;28;20199;-65
2022/11/17 09:34:12;;;;;;;2.87;0.90;;;12.80;97.20;;;;;;1740816;28;20195;-65
2022/11/17 09:35:05;;;;;;;1.80;0.80;;;12.80;97.20;;;;;;1741079;28;20203;-65
2022/11/17 09:35:57;;;;;;;1.33;0.63;;;12.80;97.20;;;;;;1741107;28;20199;-65
2022/11/17 09:36:48;;;;;;;2.22;0.75;;;12.80;97.20;;;;;;1741186;28;20601;-66
2022/11/17 09:37:41;;;;;;;1.30;0.50;;;12.90;97.20;;;;;;1741086;28;20191;-66
2022/11/17 09:38:32;;;;;;;1.27;0.60;;;12.90;97.20;;;;;;1740864;28;20653;-66
2022/11/17 09:39:23;;;;;;;1.67;0.80;;;12.90;97.20;;;;;;1741082;28;20566;-65
2022/11/17 09:40:17;;;;;;;2.80;1.10;;;13.00;97.20;;;;;;1740796;28;20203;-66
2022/11/17 09:41:25;;;;;;;1.13;0.65;;;13.10;97.20;;;;;;1741043;28;20206;-66
2022/11/17 09:42:19;;;;;;;2.42;0.73;;;13.10;97.20;;;;;;1741136;28;20199;-66
2022/11/17 09:43:27;;;;;;;1.45;0.65;;;13.20;97.20;;;;;;1741098;28;20669;-66
2022/11/17 09:44:28;;;;;;;2.78;0.85;;;13.20;97.20;;;;;;1741010;28;20215;-66
2022/11/17 09:45:23;;;;;;;1.75;0.70;;;13.20;97.20;;;;;;1741074;28;20711;-66
2022/11/17 09:46:21;;;;;;;1.23;0.70;;;13.20;97.20;;;;;;1741052;28;20661;-66
2022/11/17 09:47:24;;;;;;;2.17;0.80;;;13.30;97.20;;;;;;1741018;28;20328;-66
2022/11/17 09:48:20;;;;;;;1.13;0.60;;;13.20;97.20;;;;;;1741125;28;20575;-66
2022/11/17 09:49:16;;;;;;;2.70;1.00;;;13.30;97.20;;;;;;1740544;28;20202;-66
2022/11/17 09:50:18;;;;;;;2.13;1.00;;;13.30;97.20;;;;;;1740921;28;20207;-66
2022/11/17 09:51:13;;;;;;;2.17;0.70;;;13.20;97.20;;;;;;1741036;28;20260;-66
2022/11/17 09:52:13;;;;;;;4.43;1.00;;;13.30;97.20;;;;;;1740918;28;20197;-66
2022/11/17 09:53:16;;;;;;;1.85;0.70;;;13.20;97.20;;;;;;1741092;28;20207;-66
2022/11/17 09:54:17;;;;;;;1.55;0.70;;;13.20;97.20;;;;;;1741177;28;20207;-65
2022/11/17 09:55:20;;;;;;;1.85;0.60;;;13.20;97.20;;;;;;1741140;28;20664;-66
2022/11/17 09:56:12;;;;;;;1.65;0.90;;;13.20;97.20;;;;;;1741127;28;20669;-66
2022/11/17 09:57:07;;;;;;;1.45;0.88;;;13.10;97.20;;;;;;1740975;28;20199;-66
2022/11/17 09:58:07;;;;;;;3.15;1.10;;;13.10;97.20;;;;;;1740993;28;20203;-66
2022/11/17 09:59:03;;;;;;;1.88;0.65;;;13.10;97.20;;;;;;1741054;28;20199;-65
2022/11/17 10:00:12;;;;;;;1.33;0.68;;;13.10;97.20;;;;;;1741050;28;20280;-66
2022/11/17 10:01:04;;;;;;;1.85;0.70;;;13.10;97.20;;;;;;1741067;28;20547;-66
2022/11/17 10:01:55;;;;;;;3.30;0.70;;;13.10;97.20;;;;;;1740942;28;20191;-66
2022/11/17 10:02:47;;;;;;;2.22;0.70;;;13.10;97.20;;;;;;1740692;28;20202;-66
2022/11/17 10:03:40;;;;;;;4.50;0.90;;;13.10;97.20;;;;;;1740929;28;20210;-66
2022/11/17 10:04:31;;;;;;;2.28;1.10;;;13.10;97.20;;;;;;1740963;28;20199;-66
2022/11/17 10:05:28;;;;;;;1.30;0.60;;;13.10;97.20;;;;;;1741109;28;20199;-66
2022/11/17 10:06:21;;;;;;;1.13;0.70;;;13.10;97.20;;;;;;1741040;28;20664;-66
2022/11/17 10:07:12;;;;;;;3.75;0.90;;;13.20;97.20;;;;;;1741026;28;20237;-66
2022/11/17 10:08:10;;;;;;;1.65;0.90;;;13.20;97.20;;;;;;1741009;28;20206;-66
2022/11/17 10:09:07;;;;;;;1.55;0.98;;;13.20;97.20;;;;;;1741063;28;20286;-66
2022/11/17 10:10:01;;;;;;;3.33;0.70;;;13.30;97.20;;;;;;1741114;28;20211;-66
2022/11/17 10:10:52;;;;;;;3.45;0.88;;;13.30;97.20;;;;;;1741025;28;20712;-66
2022/11/17 10:11:45;;;;;;;4.72;1.00;;;13.30;97.20;;;;;;1740948;28;20206;-66
2022/11/17 10:12:45;;;;;;;1.75;0.70;;;13.30;97.20;;;;;;1740893;28;20311;-66
2022/11/17 10:13:36;;;;;;;2.80;0.82;;;13.40;97.20;;;;;;1741081;28;20566;-66
2022/11/17 10:14:28;;;;;;;1.58;0.73;;;13.50;97.20;;;;;;1741129;28;20254;-66
2022/11/17 10:15:26;;;;;;;4.53;1.20;;;13.60;97.20;;;;;;1740964;28;20203;-66
2022/11/17 10:16:17;;;;;;;3.50;1.30;;;13.70;97.20;;;;;;1741066;28;20195;-66
2022/11/17 10:17:11;;;;;;;2.15;1.00;;;13.80;97.20;;;;;;1740977;28;20203;-66
2022/11/17 10:18:02;;;;;;;2.45;0.90;;;13.90;97.20;;;;;;1741033;28;20214;-66
2022/11/17 10:18:54;;;;;;;2.73;0.97;;;14.00;97.20;;;;;;1740495;28;20191;-66
2022/11/17 10:19:45;;;;;;;2.92;0.80;;;14.10;97.20;;;;;;1746431;28;20191;-66
2022/11/17 10:20:36;;;;;;;1.53;1.00;;;14.30;97.20;;;;;;1746152;28;20218;-66
2022/11/17 10:21:29;;;;;;;1.42;0.70;;;14.50;97.20;;;;;;1746031;28;20911;-66
2022/11/17 10:22:32;;;;;;;2.63;0.93;;;14.60;97.20;;;;;;1747858;28;20201;-66
2022/11/17 10:23:33;;;;;;;1.42;0.73;;;14.80;97.20;;;;;;1747913;28;20198;-66
2022/11/17 10:24:35;;;;;;;2.83;0.82;;;14.90;97.20;;;;;;1747970;28;20203;-66
2022/11/17 10:25:38;;;;;;;4.13;0.90;;;15.10;97.20;;;;;;1747867;28;20199;-66
2022/11/17 10:26:45;;;;;;;2.10;0.90;;;15.20;97.20;;;;;;1747897;28;20583;-66
2022/11/17 10:27:48;;;;;;;1.95;0.80;;;15.30;97.20;;;;;;1747825;28;20241;-66
2022/11/17 10:28:40;;;;;;;5.03;1.20;;;15.50;97.20;;;;;;1747826;28;20205;-66
2022/11/17 10:29:30;;;;;;;1.65;0.65;;;15.60;97.20;;;;;;1747866;28;20206;-66
2022/11/17 10:30:23;;;;;;;2.70;0.60;;;15.70;97.20;;;;;;1747472;28;20489;-66
2022/11/17 10:31:16;;;;;;;3.35;0.90;;;15.70;97.20;;;;;;1747797;28;20259;-67
2022/11/17 10:32:15;;;;;;;1.40;0.60;;;15.70;97.20;;;;;;1747654;28;20194;-66
2022/11/17 10:33:05;;;;;;;3.85;0.93;;;15.70;97.20;;;;;;1747759;28;20226;-66
2022/11/17 10:33:57;;;;;;;2.63;1.00;;;15.60;97.20;;;;;;1747774;28;20202;-66
2022/11/17 10:34:48;;;;;;;4.45;1.20;;;15.60;97.20;;;;;;1747844;28;20203;-66
2022/11/17 10:35:39;;;;;;;4.70;1.20;;;15.60;97.20;;;;;;1741721;28;20723;-66